Time;durP1;ratioP1;P1;durP2;ratioP2;P2;SDS_P1;SDS_P2;PMS_P1;PMS_P2;Temp;Humidity;BMP_temperature;BMP_pressure;BME280_temperature;BME280_humidity;BME280_pressure;Samples;Min_cycle;Max_cycle;Signal;HPM_P1;HPM_P2
2022/06/20 00:00:39;;;;;;;;;35.00;30.25;;;;;21.50;45.98;100727.31;5021632;28;45142;-62
2022/06/20 00:03:08;;;;;;;;;35.75;32.75;;;;;21.45;46.40;100726.75;5021327;28;46173;-63
2022/06/20 00:05:36;;;;;;;;;32.75;29.75;;;;;21.44;45.67;100707.16;5021549;28;45255;-63
2022/06/20 00:08:02;;;;;;;;;40.50;33.00;;;;;21.42;45.64;100709.06;5021549;28;45481;-63
2022/06/20 00:10:29;;;;;;;;;36.50;33.00;;;;;21.42;45.93;100717.06;5021182;28;45259;-63
2022/06/20 00:12:56;;;;;;;;;29.50;27.50;;;;;21.37;46.44;100725.38;5021368;28;46543;-63
2022/06/20 00:15:23;;;;;;;;;36.50;33.25;;;;;21.38;46.14;100711.06;5036885;28;45358;-63
2022/06/20 00:17:49;;;;;;;;;35.00;30.25;;;;;21.36;46.78;100702.28;5021318;28;45360;-63
2022/06/20 00:20:15;;;;;;;;;31.00;28.00;;;;;21.36;46.59;100717.47;5021416;28;45402;-64
2022/06/20 00:22:41;;;;;;;;;34.00;30.25;;;;;21.34;46.21;100720.22;5020975;28;47058;-64
2022/06/20 00:25:07;;;;;;;;;30.50;27.50;;;;;21.33;46.34;100723.84;5036395;28;45276;-63
2022/06/20 00:27:32;;;;;;;;;33.50;31.25;;;;;21.33;46.68;100704.28;5021294;28;45343;-63
2022/06/20 00:29:57;;;;;;;;;32.25;30.25;;;;;21.32;46.60;100694.53;5021282;28;45268;-64
2022/06/20 00:32:22;;;;;;;;;37.50;33.25;;;;;21.32;46.51;100686.50;5019418;28;45289;-63
2022/06/20 00:34:48;;;;;;;;;31.00;30.00;;;;;21.32;46.31;100684.72;5021254;28;45189;-64
2022/06/20 00:37:18;;;;;;;;;29.50;27.25;;;;;21.32;46.94;100679.38;5020601;28;45943;-64
2022/06/20 00:39:45;;;;;;;;;32.75;30.50;;;;;21.32;46.79;100671.34;5020893;28;45303;-64
2022/06/20 00:42:10;;;;;;;;;35.75;31.00;;;;;21.30;46.56;100661.72;5020758;28;46099;-65
2022/06/20 00:44:41;;;;;;;;;30.75;28.75;;;;;21.30;47.32;100651.88;5020914;28;45227;-64
2022/06/20 00:47:13;;;;;;;;;32.00;29.50;;;;;21.26;47.26;100645.00;5020836;28;45304;-64
2022/06/20 00:49:49;;;;;;;;;30.25;29.00;;;;;21.26;47.14;100642.34;5017263;28;45228;-64
2022/06/20 00:52:28;;;;;;;;;30.50;27.75;;;;;21.24;47.71;100647.78;5020803;28;45231;-64
2022/06/20 00:55:02;;;;;;;;;30.75;29.75;;;;;21.22;47.63;100632.75;5020470;28;45353;-64
2022/06/20 00:57:37;;;;;;;;;30.25;30.00;;;;;21.20;47.72;100632.00;5020882;28;45422;-63
2022/06/20 01:00:14;;;;;;;;;32.25;25.75;;;;;21.18;47.99;100623.22;5020732;28;45454;-63
2022/06/20 01:02:44;;;;;;;;;29.00;27.75;;;;;21.11;47.84;100615.56;5020322;28;46229;-63
2022/06/20 01:05:24;;;;;;;;;32.50;28.50;;;;;21.10;47.70;100637.03;5002807;28;45370;-65
2022/06/20 01:08:13;;;;;;;;;34.50;31.75;;;;;21.08;47.44;100655.84;5020679;28;45244;-63
2022/06/20 01:10:45;;;;;;;;;29.50;27.50;;;;;21.05;48.07;100672.03;5020300;28;45470;-65
2022/06/20 01:13:15;;;;;;;;;29.25;28.00;;;;;21.06;48.43;100703.16;5020245;28;46444;-64
2022/06/20 01:15:43;;;;;;;;;30.75;29.75;;;;;21.03;49.77;100719.38;5020320;28;45285;-65
2022/06/20 01:18:31;;;;;;;;;31.50;29.50;;;;;20.99;48.70;100719.63;5020431;28;45285;-64
2022/06/20 01:20:59;;;;;;;;;34.00;31.00;;;;;20.91;48.94;100712.06;5020375;28;45178;-64
2022/06/20 01:23:46;;;;;;;;;32.00;28.50;;;;;20.92;48.91;100722.66;5020407;28;45462;-64
2022/06/20 01:26:25;;;;;;;;;32.50;28.50;;;;;20.90;48.29;100702.34;5020014;28;45394;-65
2022/06/20 01:28:54;;;;;;;;;28.25;27.50;;;;;20.87;48.51;100662.47;5020522;28;45217;-64
2022/06/20 01:31:21;;;;;;;;;28.50;25.50;;;;;20.85;49.16;100648.34;5020129;28;45404;-63
2022/06/20 01:33:48;;;;;;;;;34.00;30.00;;;;;20.87;48.56;100654.47;5020206;28;45444;-64
2022/06/20 01:39:00;;;;;;;;;34.75;33.00;;;;;20.82;48.33;100640.50;5020263;28;45344;-64
2022/06/20 01:44:12;;;;;;;;;31.25;29.50;;;;;20.86;48.68;100628.69;5019616;28;45790;-64
2022/06/20 01:46:38;;;;;;;;;34.00;31.50;;;;;20.86;48.83;100615.34;5019857;28;45437;-64
2022/06/20 01:49:09;;;;;;;;;30.00;29.50;;;;;20.84;49.30;100591.41;5016259;28;45311;-64
2022/06/20 01:51:44;;;;;;;;;29.75;29.25;;;;;20.86;48.85;100567.28;5035302;28;45238;-64
2022/06/20 01:54:13;;;;;;;;;27.00;27.00;;;;;20.85;49.12;100554.88;5019796;28;46252;-64
2022/06/20 01:56:40;;;;;;;;;30.75;30.25;;;;;20.84;49.25;100531.78;5019893;28;45299;-64
2022/06/20 01:59:12;;;;;;;;;31.75;29.75;;;;;20.83;49.53;100498.91;5020252;28;45343;-64
2022/06/20 02:01:38;;;;;;;;;34.25;29.75;;;;;20.80;49.57;100466.19;5019817;28;45228;-63
2022/06/20 02:04:06;;;;;;;;;30.75;28.75;;;;;20.75;49.43;100397.91;5019707;28;46048;-63
2022/06/20 02:06:33;;;;;;;;;33.50;30.00;;;;;20.71;49.70;100328.78;5019772;28;45267;-63
2022/06/20 02:08:59;;;;;;;;;35.50;30.75;;;;;20.64;50.55;100320.28;5020041;28;45391;-63
2022/06/20 02:11:31;;;;;;;;;32.00;29.25;;;;;20.62;49.86;100349.72;5018206;28;45250;-64
2022/06/20 02:14:03;;;;;;;;;32.50;29.75;;;;;20.58;50.28;100392.72;5019733;28;45950;-63
2022/06/20 02:16:33;;;;;;;;;32.50;30.00;;;;;20.54;50.17;100400.06;5019549;28;45240;-63
2022/06/20 02:19:03;;;;;;;;;29.00;27.25;;;;;20.52;50.22;100391.28;5019720;28;45466;-64
2022/06/20 02:21:31;;;;;;;;;29.25;26.25;;;;;20.46;49.90;100380.97;5019693;28;45234;-63
2022/06/20 02:24:03;;;;;;;;;27.75;23.50;;;;;20.39;50.43;100396.50;5019418;28;45402;-63
2022/06/20 02:26:30;;;;;;;;;27.50;25.00;;;;;20.39;50.14;100425.88;5019333;28;45220;-63
2022/06/20 02:29:24;;;;;;;;;22.75;22.25;;;;;20.36;50.46;100423.38;5018225;28;45396;-63
2022/06/20 02:31:56;;;;;;;;;29.50;27.25;;;;;20.32;50.24;100429.84;5019550;28;45248;-63
2022/06/20 02:34:24;;;;;;;;;30.75;25.75;;;;;20.30;50.70;100435.28;5019201;28;45237;-64
2022/06/20 02:36:50;;;;;;;;;23.50;23.00;;;;;20.25;50.38;100433.81;5019658;28;45582;-64
2022/06/20 02:39:17;;;;;;;;;25.75;23.50;;;;;20.27;50.36;100439.94;5019001;28;45367;-64
2022/06/20 02:41:47;;;;;;;;;22.00;22.00;;;;;20.25;50.38;100448.03;5019394;28;45486;-64
2022/06/20 02:44:19;;;;;;;;;24.25;23.25;;;;;20.26;50.31;100462.22;5019076;28;45332;-63
2022/06/20 02:46:48;;;;;;;;;23.50;23.00;;;;;20.26;50.83;100481.78;5019011;28;45349;-63
2022/06/20 02:49:17;;;;;;;;;23.00;23.00;;;;;20.26;50.44;100486.22;5019289;28;45343;-64
2022/06/20 02:51:51;;;;;;;;;24.00;22.25;;;;;20.24;50.84;100506.81;5019177;28;45442;-64
2022/06/20 02:54:24;;;;;;;;;29.00;26.50;;;;;20.23;51.05;100521.13;5019064;28;46335;-63
2022/06/20 02:56:54;;;;;;;;;23.50;21.50;;;;;20.21;51.04;100531.00;5022416;28;45303;-63
2022/06/20 02:59:25;;;;;;;;;27.75;26.75;;;;;20.21;52.25;100541.66;5022610;28;45267;-63
2022/06/20 03:02:08;;;;;;;;;26.00;26.00;;;;;20.18;53.08;100541.88;5022184;28;45510;-62
2022/06/20 03:04:37;;;;;;;;;28.00;26.00;;;;;20.17;53.12;100548.13;5021139;28;46129;-63
2022/06/20 03:07:13;;;;;;;;;30.00;27.25;;;;;20.13;52.71;100552.78;5024884;28;45329;-63
2022/06/20 03:09:40;;;;;;;;;28.50;27.25;;;;;20.10;52.32;100558.28;5022201;28;45344;-63
2022/06/20 03:12:07;;;;;;;;;37.00;30.25;;;;;20.11;51.88;100584.00;5021990;28;45332;-63
2022/06/20 03:14:49;;;;;;;;;41.00;32.00;;;;;20.12;52.83;100585.75;5037143;28;47150;-64
2022/06/20 03:17:17;;;;;;;;;30.75;28.25;;;;;20.12;52.40;100597.28;5022283;28;45237;-64
2022/06/20 03:19:47;;;;;;;;;35.25;32.25;;;;;20.10;52.18;100608.97;5022279;28;45336;-64
2022/06/20 03:22:18;;;;;;;;;30.50;29.50;;;;;20.11;52.59;100611.56;5022208;28;45467;-64
2022/06/20 03:24:45;;;;;;;;;30.25;29.25;;;;;20.13;52.40;100617.66;5021110;28;47296;-64
2022/06/20 03:27:15;;;;;;;;;28.75;25.75;;;;;20.15;52.94;100630.94;5022174;28;45269;-64
2022/06/20 03:29:45;;;;;;;;;29.75;29.50;;;;;20.17;52.60;100633.50;5037373;28;45266;-64
2022/06/20 03:32:10;;;;;;;;;31.50;25.75;;;;;20.16;52.60;100629.97;5021846;28;45507;-64
2022/06/20 03:34:36;;;;;;;;;35.25;31.25;;;;;20.17;52.66;100642.34;5021577;28;46155;-64
2022/06/20 03:37:02;;;;;;;;;33.00;30.25;;;;;20.18;52.44;100656.56;5021890;28;45396;-67
2022/06/20 03:39:29;;;;;;;;;33.25;30.50;;;;;20.19;52.52;100674.28;5022207;28;45256;-65
2022/06/20 03:41:54;;;;;;;;;33.75;31.75;;;;;20.21;52.52;100667.06;5022000;28;45243;-66
2022/06/20 03:44:31;;;;;;;;;34.75;32.00;;;;;20.22;52.26;100658.97;5020411;28;46938;-65
2022/06/20 03:47:39;;;;;;;;;38.00;33.00;;;;;20.23;52.59;100658.00;5021713;28;45161;-65
2022/06/20 03:50:15;;;;;;;;;33.00;31.25;;;;;20.23;52.67;100654.50;4979964;28;45428;-65
2022/06/20 03:52:49;;;;;;;;;30.25;29.50;;;;;20.25;52.06;100664.13;4980171;28;45396;-65
2022/06/20 03:55:25;;;;;;;;;35.00;28.50;;;;;20.28;52.45;100676.44;5005554;28;45407;-65
2022/06/20 03:58:02;;;;;;;;;31.50;30.50;;;;;20.29;52.34;100678.16;5021749;28;45402;-65
2022/06/20 04:00:35;;;;;;;;;29.75;27.75;;;;;20.30;52.12;100686.09;5021799;28;45466;-65
2022/06/20 04:03:06;;;;;;;;;36.25;31.00;;;;;20.36;51.99;100684.00;5021346;28;45350;-66
2022/06/20 04:05:38;;;;;;;;;29.00;27.25;;;;;20.36;51.79;100695.53;5021436;28;46247;-65
2022/06/20 04:08:11;;;;;;;;;33.50;29.00;;;;;20.38;52.19;100701.66;5021543;28;45490;-67
2022/06/20 04:10:57;;;;;;;;;34.75;29.75;;;;;20.40;52.04;100698.91;5021539;28;45350;-66
2022/06/20 04:13:40;;;;;;;;;30.00;29.00;;;;;20.41;51.59;100705.97;5021704;28;45309;-65
2022/06/20 04:16:14;;;;;;;;;37.50;33.50;;;;;20.42;51.66;100697.00;5021235;28;45284;-66
2022/06/20 04:18:57;;;;;;;;;30.75;27.75;;;;;20.43;51.89;100704.06;5021617;28;45371;-65
2022/06/20 04:21:33;;;;;;;;;31.25;27.75;;;;;20.43;51.89;100706.75;5036604;28;45265;-66
2022/06/20 04:24:09;;;;;;;;;30.25;27.25;;;;;20.44;51.38;100695.13;5020031;28;45261;-65
2022/06/20 04:26:58;;;;;;;;;30.00;28.75;;;;;20.43;51.30;100707.59;5021249;28;46306;-65
2022/06/20 04:29:30;;;;;;;;;28.75;28.75;;;;;20.42;51.72;100713.88;5021084;28;45549;-65
2022/06/20 04:32:54;;;;;;;;;27.75;27.00;;;;;20.42;51.21;100710.34;5021130;28;45347;-65
2022/06/20 04:35:28;;;;;;;;;29.25;27.00;;;;;20.41;51.56;100714.81;5005101;28;45790;-65
2022/06/20 04:37:59;;;;;;;;;28.25;28.00;;;;;20.39;51.53;100713.19;5021262;28;45326;-65
2022/06/20 04:41:06;;;;;;;;;28.25;26.75;;;;;20.38;51.32;100715.00;5020753;28;45323;-65
2022/06/20 04:43:41;;;;;;;;;29.50;26.75;;;;;20.36;51.79;100740.91;5011551;28;45194;-65
2022/06/20 04:46:15;;;;;;;;;22.75;21.75;;;;;20.36;51.11;100745.38;5020850;28;45232;-65
2022/06/20 04:48:41;;;;;;;;;28.50;24.75;;;;;20.34;51.62;100753.50;5017482;28;46416;-65
2022/06/20 04:51:09;;;;;;;;;29.25;25.50;;;;;20.33;51.57;100757.09;5020960;28;45233;-65
2022/06/20 04:53:40;;;;;;;;;27.75;25.00;;;;;20.30;51.41;100758.13;5020903;28;45359;-65
2022/06/20 04:56:10;;;;;;;;;30.25;29.25;;;;;20.27;51.51;100763.63;5020410;28;45166;-65
2022/06/20 04:58:38;;;;;;;;;34.25;28.00;;;;;20.25;51.50;100765.53;5020625;28;46357;-65
2022/06/20 05:01:08;;;;;;;;;29.00;28.50;;;;;20.27;51.58;100768.09;5020589;28;45332;-65
2022/06/20 05:03:42;;;;;;;;;31.25;29.00;;;;;20.27;51.16;100773.44;5020520;28;45482;-65
2022/06/20 05:06:14;;;;;;;;;33.00;30.00;;;;;20.25;50.93;100773.53;5020667;28;45159;-65
2022/06/20 05:08:46;;;;;;;;;34.00;31.25;;;;;20.24;51.22;100773.63;5020584;28;47469;-65
2022/06/20 05:11:17;;;;;;;;;33.75;31.00;;;;;20.26;50.96;100793.94;5035484;28;45503;-65
2022/06/20 05:13:48;;;;;;;;;35.75;30.75;;;;;20.26;51.28;100785.94;5020940;28;45457;-65
2022/06/20 05:16:22;;;;;;;;;30.25;28.00;;;;;20.27;50.80;100784.09;5020408;28;45311;-65
2022/06/20 05:19:13;;;;;;;;;41.75;31.50;;;;;20.22;51.38;100775.50;5019722;28;46922;-65
2022/06/20 05:21:45;;;;;;;;;33.25;29.50;;;;;20.24;50.83;100785.13;5020530;28;45186;-65
2022/06/20 05:24:24;;;;;;;;;34.75;28.75;;;;;20.24;51.27;100790.47;5020047;28;45198;-65
2022/06/20 05:26:52;;;;;;;;;31.75;28.75;;;;;20.23;51.43;100799.41;5035828;28;45384;-65
2022/06/20 05:29:27;;;;;;;;;33.25;31.50;;;;;20.22;51.71;100799.50;5018809;28;46263;-65
2022/06/20 05:31:55;;;;;;;;;31.25;30.00;;;;;20.20;51.15;100794.25;5020133;28;45411;-65
2022/06/20 05:34:44;;;;;;;;;35.75;31.00;;;;;20.19;51.04;100794.31;5019869;28;45245;-65
2022/06/20 05:37:35;;;;;;;;;31.00;29.00;;;;;20.19;51.03;100799.66;5020072;28;45313;-65
2022/06/20 05:40:11;;;;;;;;;34.50;31.25;;;;;20.18;50.74;100804.13;5017626;28;46207;-65
2022/06/20 05:42:37;;;;;;;;;35.75;31.00;;;;;20.20;50.67;100806.72;5020104;28;45228;-65
2022/06/20 05:45:16;;;;;;;;;32.50;29.25;;;;;20.21;50.97;100817.31;5020076;28;45178;-65
2022/06/20 05:47:47;;;;;;;;;37.00;32.25;;;;;20.21;51.09;100822.63;5019949;28;45406;-65
2022/06/20 05:50:37;;;;;;;;;30.75;29.50;;;;;20.23;50.80;100828.75;5016348;28;46104;-65
2022/06/20 05:53:07;;;;;;;;;31.75;30.25;;;;;20.24;50.88;100827.81;5019970;28;45329;-66
2022/06/20 05:55:41;;;;;;;;;35.75;29.25;;;;;20.27;51.02;100834.81;5035081;28;45492;-65
2022/06/20 05:58:11;;;;;;;;;31.75;29.50;;;;;20.28;51.07;100829.38;5020046;28;45329;-65
2022/06/20 06:00:37;;;;;;;;;33.00;32.00;;;;;20.28;51.41;100828.53;5020094;28;46573;-65
2022/06/20 06:03:10;;;;;;;;;32.50;29.50;;;;;20.29;50.96;100838.25;5019610;28;45440;-65
2022/06/20 06:05:41;;;;;;;;;27.75;26.75;;;;;20.33;50.81;100846.97;5019997;28;45370;-65
2022/06/20 06:08:21;;;;;;;;;29.50;29.50;;;;;20.35;51.16;100853.94;5019795;28;45426;-66
2022/06/20 06:10:56;;;;;;;;;28.00;25.25;;;;;20.36;51.04;100852.97;5019443;28;46046;-65
2022/06/20 06:13:41;;;;;;;;;23.00;21.50;;;;;20.37;51.13;100844.03;5019381;28;45338;-65
2022/06/20 06:16:48;;;;;;;;;30.75;27.75;;;;;20.37;50.94;100846.69;5019489;28;45476;-65
2022/06/20 06:19:37;;;;;;;;;32.25;27.25;;;;;20.40;51.06;100846.56;5019540;28;45454;-65
2022/06/20 06:22:11;;;;;;;;;30.00;29.50;;;;;20.41;50.67;100850.91;5019510;28;46201;-65
2022/06/20 06:24:41;;;;;;;;;27.75;24.00;;;;;20.44;51.19;100856.09;5019119;28;45296;-65
2022/06/20 06:27:10;;;;;;;;;26.50;25.00;;;;;20.42;51.37;100862.47;5019625;28;45347;-65
2022/06/20 06:29:47;;;;;;;;;26.75;26.75;;;;;20.45;51.21;100864.97;5019381;28;45406;-65
2022/06/20 06:32:26;;;;;;;;;27.75;24.00;;;;;20.48;51.53;100875.50;5022594;28;47074;-65
2022/06/20 06:35:14;;;;;;;;;26.75;25.50;;;;;20.50;50.70;100883.41;5023078;28;45317;-66
2022/06/20 06:37:50;;;;;;;;;27.00;23.75;;;;;20.52;51.00;100879.72;5022879;28;45494;-65
2022/06/20 06:40:37;;;;;;;;;24.00;22.50;;;;;20.55;50.85;100884.03;5022575;28;45348;-65
2022/06/20 06:43:13;;;;;;;;;23.75;23.75;;;;;20.56;50.80;100885.75;5022739;28;45227;-65
2022/06/20 06:45:38;;;;;;;;;28.75;23.25;;;;;20.55;51.04;100884.03;5022323;28;45324;-65
2022/06/20 06:48:19;;;;;;;;;26.25;24.00;;;;;20.58;50.88;100879.38;5021280;28;45268;-65
2022/06/20 06:51:07;;;;;;;;;26.50;25.25;;;;;20.61;50.93;100886.38;5022626;28;45424;-65
2022/06/20 06:53:56;;;;;;;;;31.75;30.25;;;;;20.64;51.02;100891.56;5021130;28;47633;-65
2022/06/20 06:56:34;;;;;;;;;31.50;29.00;;;;;20.65;50.59;100901.25;5022305;28;45399;-65
2022/06/20 06:59:21;;;;;;;;;28.00;26.50;;;;;20.66;51.03;100908.34;5022796;28;45446;-65
2022/06/20 07:02:00;;;;;;;;;31.25;28.75;;;;;20.68;50.68;100906.44;5022277;28;45413;-65
2022/06/20 07:04:35;;;;;;;;;32.25;30.00;;;;;20.68;50.42;100903.78;5022332;28;46124;-65
2022/06/20 07:07:15;;;;;;;;;25.75;25.75;;;;;20.71;50.74;100921.47;5022592;28;45402;-66
2022/06/20 07:09:53;;;;;;;;;28.75;28.50;;;;;20.71;50.81;100926.81;5022117;28;45181;-65
2022/06/20 07:12:36;;;;;;;;;30.50;29.75;;;;;20.71;50.87;100921.47;5022224;28;45454;-65
2022/06/20 07:15:17;;;;;;;;;31.75;26.25;;;;;20.72;50.30;100921.38;5022210;28;45166;-65
2022/06/20 07:17:50;;;;;;;;;24.50;22.75;;;;;20.73;50.05;100931.13;5022048;28;45339;-66
2022/06/20 07:20:20;;;;;;;;;21.50;19.75;;;;;20.73;50.29;100938.28;5022290;28;45339;-65
2022/06/20 07:22:47;;;;;;;;;24.00;23.00;;;;;20.75;50.66;100949.72;5021780;28;45533;-65
2022/06/20 07:25:18;;;;;;;;;27.00;25.25;;;;;20.74;50.51;100946.22;5021807;28;46194;-65
2022/06/20 07:27:50;;;;;;;;;21.75;19.25;;;;;20.74;50.55;100948.00;5021903;28;46322;-65
2022/06/20 07:30:20;;;;;;;;;24.75;21.75;;;;;20.73;50.32;100941.81;5022329;28;45480;-65
2022/06/20 07:33:00;;;;;;;;;20.50;19.50;;;;;20.72;49.67;100945.41;5020149;28;46192;-65
2022/06/20 07:35:35;;;;;;;;;20.75;20.00;;;;;20.74;50.00;100948.00;5020646;28;46924;-65
2022/06/20 07:38:09;;;;;;;;;18.25;18.25;;;;;20.73;50.08;100944.47;5021991;28;45462;-65
2022/06/20 07:40:46;;;;;;;;;22.75;21.50;;;;;20.72;50.19;100948.09;5036402;28;45482;-65
2022/06/20 07:43:22;;;;;;;;;21.50;20.00;;;;;20.72;49.98;100952.56;5021895;28;45316;-65
2022/06/20 07:45:50;;;;;;;;;19.50;17.50;;;;;20.72;49.85;100958.78;5036752;28;46311;-65
2022/06/20 07:48:26;;;;;;;;;21.25;17.50;;;;;20.71;49.95;100956.19;5018550;28;45251;-66
2022/06/20 07:51:02;;;;;;;;;16.00;14.75;;;;;20.71;50.06;100959.72;5009139;28;45296;-65
2022/06/20 07:53:40;;;;;;;;;18.50;16.75;;;;;20.69;49.90;100956.25;5021592;28;45319;-65
2022/06/20 07:56:12;;;;;;;;;19.50;15.25;;;;;20.67;49.63;100958.13;5021499;28;45347;-65
2022/06/20 07:58:43;;;;;;;;;19.00;16.25;;;;;20.67;50.34;100963.47;5021603;28;45284;-66
2022/06/20 08:01:24;;;;;;;;;18.50;16.00;;;;;20.64;49.91;100958.31;5021684;28;45276;-65
2022/06/20 08:04:01;;;;;;;;;20.75;19.25;;;;;20.62;49.80;100954.84;5021397;28;45481;-64
2022/06/20 08:06:56;;;;;;;;;22.00;18.00;;;;;20.61;50.34;100969.13;5021368;28;45329;-66
2022/06/20 08:09:38;;;;;;;;;19.25;16.75;;;;;20.57;50.40;100964.91;5029743;28;45258;-65
2022/06/20 08:12:30;;;;;;;;;19.00;17.75;;;;;20.53;50.15;100968.69;5021633;28;45232;-65
2022/06/20 08:15:11;;;;;;;;;17.50;15.25;;;;;20.52;50.13;100969.63;5021276;28;45182;-65
2022/06/20 08:17:37;;;;;;;;;16.00;16.00;;;;;20.48;50.00;100976.03;5021065;28;46365;-65
2022/06/20 08:20:04;;;;;;;;;19.00;15.75;;;;;20.46;50.00;100979.69;5021502;28;45496;-65
2022/06/20 08:22:52;;;;;;;;;17.25;17.25;;;;;20.44;49.79;100984.22;5021241;28;45272;-65
2022/06/20 08:25:34;;;;;;;;;14.75;14.25;;;;;20.42;50.29;100982.56;5021051;28;45430;-65
2022/06/20 08:28:12;;;;;;;;;14.50;13.75;;;;;20.41;50.00;100978.16;5021330;28;46991;-65
2022/06/20 08:30:56;;;;;;;;;17.00;14.75;;;;;20.37;49.85;100981.94;5021008;28;45310;-65
2022/06/20 08:33:27;;;;;;;;;18.75;17.75;;;;;20.31;49.66;100967.09;5021291;28;45267;-65
2022/06/20 08:36:15;;;;;;;;;17.50;16.25;;;;;20.38;49.51;100981.00;5020923;28;45441;-65
2022/06/20 08:38:56;;;;;;;;;21.50;16.50;;;;;20.39;49.72;100986.25;5020858;28;46144;-65
2022/06/20 08:41:49;;;;;;;;;17.75;15.25;;;;;20.39;49.50;100986.25;5020954;28;45399;-65
2022/06/20 08:44:36;;;;;;;;;15.25;15.25;;;;;20.42;49.50;100985.25;5036348;28;45502;-66
2022/06/20 08:47:23;;;;;;;;;16.25;15.75;;;;;20.44;49.48;100991.38;5020664;28;45383;-65
2022/06/20 08:49:57;;;;;;;;;15.50;15.00;;;;;20.47;49.42;100983.19;5016814;28;46178;-65
2022/06/20 08:52:41;;;;;;;;;20.25;17.25;;;;;20.50;49.46;100992.84;5019921;28;45329;-65
2022/06/20 08:55:25;;;;;;;;;16.75;16.75;;;;;20.55;49.54;101002.34;5020575;28;45387;-65
2022/06/20 08:57:56;;;;;;;;;17.25;17.25;;;;;20.59;49.44;101011.91;5020689;28;45386;-65
2022/06/20 09:00:33;;;;;;;;;17.25;16.50;;;;;20.63;49.39;101008.13;5035663;28;48342;-66
2022/06/20 09:03:07;;;;;;;;;20.00;16.50;;;;;20.68;49.72;101010.59;5020328;28;45399;-65
2022/06/20 09:05:50;;;;;;;;;18.50;16.25;;;;;20.71;49.31;101006.91;5020731;28;45396;-65
2022/06/20 09:08:57;;;;;;;;;16.00;15.75;;;;;20.75;49.15;101012.03;5035743;28;45239;-65
2022/06/20 09:12:01;;;;;;;;;19.25;16.50;;;;;20.79;49.22;101015.38;4983562;28;46155;-65
2022/06/20 09:14:58;;;;;;;;;17.75;15.50;;;;;20.81;49.76;101015.31;5019997;28;45453;-66
2022/06/20 09:17:55;;;;;;;;;19.50;19.00;;;;;20.84;49.52;101020.47;5020482;28;45261;-66
2022/06/20 09:20:46;;;;;;;;;18.25;17.50;;;;;20.86;49.09;101023.94;5018113;28;45327;-65
2022/06/20 09:23:27;;;;;;;;;18.25;18.25;;;;;20.87;49.06;101031.88;5020290;28;47292;-65
2022/06/20 09:25:57;;;;;;;;;17.75;17.25;;;;;20.89;49.25;101018.41;5019896;28;45496;-65
2022/06/20 09:28:37;;;;;;;;;19.00;19.00;;;;;20.90;49.09;101028.16;5020401;28;45294;-65
2022/06/20 09:31:18;;;;;;;;;22.75;19.50;;;;;20.92;48.96;101023.63;5019987;28;45673;-65
2022/06/20 09:33:46;;;;;;;;;23.25;20.75;;;;;20.93;49.40;101026.19;5019980;28;46199;-65
2022/06/20 09:36:37;;;;;;;;;21.00;19.75;;;;;20.97;48.95;101023.34;5035437;28;45358;-66
2022/06/20 09:39:08;;;;;;;;;21.25;19.00;;;;;20.99;49.33;101030.34;5035136;28;45368;-65
2022/06/20 09:42:09;;;;;;;;;19.50;18.75;;;;;21.01;49.04;101027.59;5020090;28;45449;-66
2022/06/20 09:45:06;;;;;;;;;21.75;20.75;;;;;21.06;49.19;101045.09;5020049;28;45387;-66
2022/06/20 09:47:50;;;;;;;;;16.50;15.25;;;;;21.06;49.37;101053.13;4983764;28;45547;-65
2022/06/20 09:50:40;;;;;;;;;22.50;19.25;;;;;21.11;48.71;101069.75;5016321;28;45335;-67
2022/06/20 09:53:29;;;;;;;;;15.25;14.75;;;;;21.11;49.20;101064.41;5020049;28;45248;-67
2022/06/20 09:56:08;;;;;;;;;21.75;19.50;;;;;21.15;48.92;101062.44;5019754;28;46677;-67
2022/06/20 09:58:44;;;;;;;;;21.50;19.50;;;;;21.17;49.27;101059.69;5019747;28;45335;-66
2022/06/20 10:01:12;;;;;;;;;22.75;22.25;;;;;21.19;49.11;101055.97;5020063;28;45412;-67
2022/06/20 10:03:59;;;;;;;;;23.00;21.50;;;;;21.22;49.18;101065.63;5020075;28;45592;-67
2022/06/20 10:06:35;;;;;;;;;22.25;19.50;;;;;21.24;48.95;101067.31;5026162;28;46060;-66
2022/06/20 10:09:04;;;;;;;;;21.00;17.50;;;;;21.30;49.13;101065.25;5026226;28;45416;-68
2022/06/20 10:11:54;;;;;;;;;23.75;23.00;;;;;21.30;48.75;101057.25;5026346;28;45402;-67
2022/06/20 10:14:31;;;;;;;;;24.25;19.25;;;;;21.38;49.19;101063.88;5026383;28;45242;-66
2022/06/20 10:17:15;;;;;;;;;21.25;19.75;;;;;21.45;48.97;101066.22;5026193;28;46290;-66
2022/06/20 10:19:56;;;;;;;;;21.50;21.50;;;;;21.51;48.89;101069.41;5025985;28;45375;-66
2022/06/20 10:22:35;;;;;;;;;24.00;21.25;;;;;21.56;49.42;101071.88;5041699;28;45240;-66
2022/06/20 10:25:06;;;;;;;;;16.00;16.00;;;;;21.62;49.26;101060.81;5025784;28;45455;-67
2022/06/20 10:27:49;;;;;;;;;31.00;22.00;;;;;21.66;48.99;101065.06;5025940;28;45660;-66
2022/06/20 10:30:55;;;;;;;;;20.75;20.25;;;;;21.70;48.97;101066.63;5026132;28;45315;-67
2022/06/20 10:33:32;;;;;;;;;21.00;17.25;;;;;21.80;49.00;101068.75;4984401;28;45270;-66
2022/06/20 10:36:15;;;;;;;;;17.75;17.50;;;;;21.88;49.10;101071.88;5016607;28;45621;-67
2022/06/20 10:39:10;;;;;;;;;21.00;20.00;;;;;21.95;48.67;101075.06;5025811;28;46146;-67
2022/06/20 10:42:07;;;;;;;;;22.75;20.50;;;;;22.05;48.75;101085.16;5025892;28;45401;-66
2022/06/20 10:44:54;;;;;;;;;21.25;19.50;;;;;22.13;48.23;101086.53;5026098;28;45282;-66
2022/06/20 10:47:28;;;;;;;;;20.75;17.50;;;;;22.19;48.61;101083.50;5040890;28;45749;-66
2022/06/20 10:50:12;;;;;;;;;18.75;17.25;;;;;;;;5021870;28;45407;-66
2022/06/20 10:53:05;;;;;;;;;19.50;19.00;;;;;22.36;48.43;101096.78;5025921;28;45236;-66
2022/06/20 10:55:41;;;;;;;;;25.00;19.25;;;;;22.42;48.43;101108.13;5025546;28;45297;-66
2022/06/20 10:58:41;;;;;;;;;16.50;16.50;;;;;22.47;48.62;101092.63;5025735;28;45239;-66
2022/06/20 11:01:29;;;;;;;;;19.25;17.50;;;;;22.52;48.39;101099.44;5025454;28;46732;-66
2022/06/20 11:04:21;;;;;;;;;21.25;18.00;;;;;22.58;48.14;101098.22;5005999;28;45351;-66
2022/06/20 11:07:14;;;;;;;;;20.50;19.50;;;;;22.65;48.30;101096.88;5041063;28;45332;-66
2022/06/20 11:10:04;;;;;;;;;20.75;17.50;;;;;22.72;48.24;101095.56;5025465;28;45336;-67
2022/06/20 11:12:29;;;;;;;;;16.75;16.75;;;;;22.81;48.09;101096.00;5025379;28;45442;-66
2022/06/20 11:15:10;;;;;;;;;21.25;18.75;;;;;22.88;48.11;101092.84;5025407;28;45562;-66
2022/06/20 11:17:49;;;;;;;;;19.25;16.50;;;;;22.98;48.36;101094.94;5021824;28;45406;-66
2022/06/20 11:20:16;;;;;;;;;19.50;18.00;;;;;23.08;48.04;101096.13;5020803;28;45451;-66
2022/06/20 11:22:47;;;;;;;;;20.75;19.25;;;;;23.17;47.90;101108.16;5021770;28;46169;-66
2022/06/20 11:25:50;;;;;;;;;19.50;18.50;;;;;23.26;48.00;101112.91;5021892;28;45453;-66
2022/06/20 11:28:27;;;;;;;;;19.75;18.75;;;;;23.34;47.53;101110.59;5022347;28;45347;-66
2022/06/20 11:31:02;;;;;;;;;19.50;18.50;;;;;23.41;47.46;101104.88;5021796;28;45312;-66
2022/06/20 11:36:59;;;;;;;;;17.50;16.00;;;;;23.57;47.41;101100.28;5022077;28;45170;-66
2022/06/20 11:39:46;;;;;;;;;21.00;18.75;;;;;23.65;47.54;101106.00;5015910;28;45215;-66
2022/06/20 11:42:52;;;;;;;;;19.25;17.25;;;;;23.77;47.39;101117.78;5021740;28;45506;-66
2022/06/20 11:46:04;;;;;;;;;19.00;17.50;;;;;23.82;47.16;101099.56;5021359;28;45606;-66
2022/06/20 11:48:37;;;;;;;;;20.25;18.75;;;;;23.91;46.85;101094.56;5004162;28;45665;-66
2022/06/20 11:51:29;;;;;;;;;19.75;18.00;;;;;24.00;47.05;101096.69;5021757;28;45304;-66
2022/06/20 11:54:14;;;;;;;;;22.75;18.00;;;;;24.09;46.98;101095.22;5021320;28;45431;-66
2022/06/20 11:57:02;;;;;;;;;18.75;17.50;;;;;24.20;47.24;101090.00;5021426;28;46313;-66
2022/06/20 11:59:41;;;;;;;;;18.75;16.75;;;;;24.31;47.15;101082.09;5021605;28;45257;-66
2022/06/20 12:02:31;;;;;;;;;19.25;17.50;;;;;24.44;47.00;101083.94;5021439;28;45410;-66